createdAt,value
2018-11-14T00:01:02.088Z,7.03
2018-11-14T00:03:31.399Z,7.97
2018-11-14T00:05:59.602Z,6.83
2018-11-14T00:08:27.766Z,9.03
2018-11-14T00:10:55.955Z,9.97
2018-11-14T00:13:24.163Z,6.93
2018-11-14T00:15:52.394Z,6.07
2018-11-14T00:18:20.538Z,9.67
2018-11-14T00:20:48.847Z,5.20
2018-11-14T00:23:17.167Z,6.13
2018-11-14T00:25:45.345Z,8.13
2018-11-14T00:28:13.510Z,8.07
2018-11-14T00:30:41.666Z,7.50
2018-11-14T00:33:09.953Z,7.57
2018-11-14T00:35:38.080Z,6.13
2018-11-14T00:38:06.214Z,10.77
2018-11-14T00:40:37.271Z,7.43
2018-11-14T00:43:05.972Z,5.33
2018-11-14T00:45:34.308Z,10.03
2018-11-14T00:48:02.490Z,6.27
2018-11-14T00:50:30.699Z,7.80
2018-11-14T00:52:58.858Z,5.83
2018-11-14T00:55:27.237Z,8.10
2018-11-14T00:57:55.395Z,8.40
2018-11-14T01:00:24.679Z,6.97
2018-11-14T01:02:52.962Z,8.70
2018-11-14T01:05:21.315Z,9.73
2018-11-14T01:07:49.534Z,4.83
2018-11-14T01:10:18.895Z,6.97
2018-11-14T01:12:47.688Z,7.00
2018-11-14T01:15:17.514Z,7.20
2018-11-14T01:17:45.759Z,7.83
2018-11-14T01:20:17.420Z,5.60
2018-11-14T01:22:46.119Z,7.57
2018-11-14T01:25:15.402Z,7.43
2018-11-14T01:27:44.223Z,7.93
2018-11-14T01:30:16.522Z,9.57
2018-11-14T01:32:45.658Z,7.47
2018-11-14T01:35:14.353Z,9.37
2018-11-14T01:37:42.550Z,7.20
2018-11-14T01:40:14.188Z,10.17
2018-11-14T01:42:42.862Z,6.67
2018-11-14T01:45:11.459Z,10.43
2018-11-14T01:47:39.685Z,11.23
2018-11-14T01:50:09.195Z,10.67
2018-11-14T01:52:37.619Z,8.67
2018-11-14T01:55:06.866Z,6.23
2018-11-14T01:57:35.042Z,7.00
2018-11-14T02:00:03.404Z,10.07
2018-11-14T02:02:31.640Z,7.03
2018-11-14T02:04:59.839Z,12.20
2018-11-14T02:07:28.027Z,9.27
2018-11-14T02:09:56.200Z,6.67
2018-11-14T02:12:24.478Z,6.50
2018-11-14T02:14:52.664Z,6.23
2018-11-14T02:17:20.876Z,6.70
2018-11-14T02:19:49.051Z,7.93
2018-11-14T02:22:17.219Z,6.37
2018-11-14T02:24:45.508Z,6.60
2018-11-14T02:27:13.784Z,8.73
2018-11-14T02:29:42.328Z,10.70
2018-11-14T02:32:10.540Z,7.13
2018-11-14T02:34:38.708Z,10.23
2018-11-14T02:37:06.915Z,8.83
2018-11-14T02:39:35.113Z,11.90
2018-11-14T02:42:03.302Z,10.73
2018-11-14T02:44:31.473Z,6.50
2018-11-14T02:46:59.630Z,10.23
2018-11-14T02:49:27.821Z,6.97
2018-11-14T02:51:56.552Z,7.20
2018-11-14T02:54:24.766Z,7.23
2018-11-14T02:56:52.923Z,8.00
2018-11-14T02:59:21.121Z,9.97
2018-11-14T03:01:49.346Z,7.17
2018-11-14T03:04:17.531Z,7.97
2018-11-14T03:06:45.701Z,8.00
2018-11-14T03:09:13.867Z,11.67
2018-11-14T03:11:42.842Z,11.07
2018-11-14T03:14:11.016Z,11.10
2018-11-14T03:16:39.202Z,10.93
2018-11-14T03:19:07.446Z,8.93
2018-11-14T03:21:35.628Z,7.17
2018-11-14T03:24:03.843Z,7.00
2018-11-14T03:26:32.066Z,6.50
2018-11-14T03:29:00.890Z,8.80
2018-11-14T03:31:29.072Z,5.93
2018-11-14T03:33:57.362Z,6.43
2018-11-14T03:36:25.539Z,5.60
2018-11-14T03:38:53.723Z,5.87
2018-11-14T03:41:21.912Z,8.63
2018-11-14T03:43:50.120Z,9.27
2018-11-14T03:46:18.410Z,9.37
2018-11-14T03:48:46.643Z,8.17
2018-11-14T03:51:14.823Z,8.90
2018-11-14T03:53:43.507Z,10.63
2018-11-14T03:56:11.711Z,9.57
2018-11-14T03:58:39.888Z,8.53
2018-11-14T04:01:08.841Z,6.80
2018-11-14T04:03:37.053Z,6.17
2018-11-14T04:06:05.235Z,6.63
2018-11-14T04:08:34.655Z,11.33
2018-11-14T04:11:03.020Z,9.80
2018-11-14T04:13:31.699Z,9.83
2018-11-14T04:15:59.882Z,11.47
2018-11-14T04:18:28.040Z,8.70
2018-11-14T04:20:56.209Z,8.73
2018-11-14T04:23:24.437Z,8.27
2018-11-14T04:25:52.590Z,7.63
2018-11-14T04:28:20.760Z,9.73
2018-11-14T04:30:48.942Z,12.30
2018-11-14T04:33:17.133Z,12.60
2018-11-14T04:35:45.366Z,9.50
2018-11-14T04:38:13.571Z,8.80
2018-11-14T04:40:41.715Z,8.73
2018-11-14T04:43:09.904Z,10.00
2018-11-14T04:45:38.539Z,7.77
2018-11-14T04:48:06.776Z,11.80
2018-11-14T04:50:34.895Z,8.57
2018-11-14T04:53:03.057Z,10.17
2018-11-14T04:55:31.231Z,11.23
2018-11-14T04:57:59.422Z,9.93
2018-11-14T05:00:27.732Z,8.40
2018-11-14T05:02:55.933Z,10.67
2018-11-14T05:05:24.772Z,10.20
2018-11-14T05:07:52.938Z,6.70
2018-11-14T05:10:23.455Z,13.47
2018-11-14T05:12:52.198Z,8.27
2018-11-14T05:15:21.696Z,7.67
2018-11-14T05:17:50.557Z,10.20
2018-11-14T05:20:19.697Z,14.17
2018-11-14T05:22:48.233Z,8.17
2018-11-14T05:25:16.445Z,11.67
2018-11-14T05:27:44.620Z,11.27
2018-11-14T05:30:14.517Z,8.90
2018-11-14T05:32:43.478Z,9.53
2018-11-14T05:35:12.479Z,9.80
2018-11-14T05:37:40.688Z,10.70
2018-11-14T05:40:11.042Z,7.27
2018-11-14T05:42:39.801Z,10.67
2018-11-14T05:45:13.631Z,8.23
2018-11-14T05:47:42.588Z,12.23
2018-11-14T05:50:13.379Z,9.03
2018-11-14T05:52:42.114Z,8.67
2018-11-14T05:55:11.109Z,12.10
2018-11-14T05:57:39.263Z,6.40
2018-11-14T06:00:26.803Z,12.67
2018-11-14T06:02:54.980Z,9.23
2018-11-14T06:05:23.167Z,8.40
2018-11-14T06:07:51.335Z,14.00
2018-11-14T06:10:19.827Z,9.27
2018-11-14T06:12:47.986Z,9.77
2018-11-14T06:15:17.367Z,7.83
2018-11-14T06:17:46.379Z,9.97
2018-11-14T06:20:16.903Z,8.93
2018-11-14T06:22:46.072Z,9.17
2018-11-14T06:25:25.343Z,9.40
2018-11-14T06:27:54.580Z,8.47
2018-11-14T06:30:23.022Z,6.93
2018-11-14T06:32:51.679Z,8.07
2018-11-14T06:35:20.256Z,8.97
2018-11-14T06:37:49.445Z,11.20
2018-11-14T06:40:17.775Z,7.93
2018-11-14T06:42:46.180Z,13.07
2018-11-14T06:45:15.742Z,7.53
2018-11-14T06:47:45.222Z,12.40
2018-11-14T06:50:13.904Z,10.47
2018-11-14T06:52:42.518Z,10.80
2018-11-14T06:55:12.483Z,8.83
2018-11-14T06:57:40.889Z,10.80
2018-11-14T07:00:14.639Z,11.83
2018-11-14T07:02:43.467Z,12.30
2018-11-14T07:05:13.269Z,12.37
2018-11-14T07:07:41.972Z,11.63
2018-11-14T07:10:11.975Z,15.90
2018-11-14T07:12:40.210Z,9.37
2018-11-14T07:15:11.046Z,13.00
2018-11-14T07:17:39.342Z,12.70
2018-11-14T07:20:11.530Z,12.33
2018-11-14T07:22:39.821Z,9.47
2018-11-14T07:25:08.291Z,12.10
2018-11-14T07:27:36.503Z,9.57
2018-11-14T07:30:05.530Z,13.77
2018-11-14T07:32:33.719Z,14.80
2018-11-14T07:35:01.910Z,10.27
2018-11-14T07:37:30.236Z,9.43
2018-11-14T07:39:58.430Z,11.77
2018-11-14T07:42:26.604Z,8.60
2018-11-14T07:44:54.925Z,9.17
2018-11-14T07:47:23.092Z,7.80
2018-11-14T07:49:51.268Z,10.70
2018-11-14T07:52:19.479Z,8.90
2018-11-14T07:54:47.701Z,11.47
2018-11-14T07:57:16.059Z,9.20
2018-11-14T07:59:44.194Z,7.73
2018-11-14T08:02:12.368Z,9.27
2018-11-14T08:04:40.571Z,10.17
2018-11-14T08:07:08.740Z,9.90
2018-11-14T08:09:37.551Z,9.53
2018-11-14T08:12:06.081Z,10.93
2018-11-14T08:14:34.268Z,10.10
2018-11-14T08:17:02.435Z,9.20
2018-11-14T08:19:30.600Z,8.60
2018-11-14T08:21:58.783Z,14.93
2018-11-14T08:24:26.947Z,12.67
2018-11-14T08:26:55.136Z,11.20
2018-11-14T08:29:23.388Z,11.47
2018-11-14T08:31:51.534Z,12.63
2018-11-14T08:34:19.746Z,12.27
2018-11-14T08:36:48.536Z,14.57
2018-11-14T08:39:17.123Z,9.47
2018-11-14T08:41:45.288Z,10.63
2018-11-14T08:44:13.480Z,16.23
2018-11-14T08:46:41.656Z,14.40
2018-11-14T08:49:09.826Z,14.23
2018-11-14T08:51:38.471Z,15.93
2018-11-14T08:54:06.835Z,17.53
2018-11-14T08:56:35.049Z,13.87
2018-11-14T08:59:03.315Z,11.87
2018-11-14T09:01:32.388Z,13.37
2018-11-14T09:04:00.731Z,11.60
2018-11-14T09:06:28.876Z,15.50
2018-11-14T09:08:57.058Z,19.20
2018-11-14T09:11:25.432Z,17.60
2018-11-14T09:13:53.496Z,17.17
2018-11-14T09:16:21.783Z,15.67
2018-11-14T09:18:50.081Z,14.37
2018-11-14T09:21:18.227Z,13.70
2018-11-14T09:23:46.462Z,11.80
2018-11-14T09:26:14.591Z,13.03
2018-11-14T09:28:42.759Z,11.63
2018-11-14T09:31:10.922Z,12.30
2018-11-14T09:33:39.711Z,10.57
2018-11-14T09:36:07.912Z,13.20
2018-11-14T09:38:36.090Z,14.43
2018-11-14T09:41:04.663Z,15.80
2018-11-14T09:43:32.945Z,14.57
2018-11-14T09:46:01.665Z,14.97
2018-11-14T09:48:29.875Z,14.53
2018-11-14T09:50:58.044Z,14.03
2018-11-14T09:53:26.393Z,14.37
2018-11-14T09:55:54.455Z,11.17
2018-11-14T09:58:22.672Z,11.97
2018-11-14T10:00:51.028Z,14.47
2018-11-14T10:03:19.210Z,11.03
2018-11-14T10:05:47.488Z,17.30
2018-11-14T10:08:15.639Z,14.00
2018-11-14T10:10:43.838Z,16.40
2018-11-14T10:13:12.078Z,15.13
2018-11-14T10:15:40.394Z,10.43
2018-11-14T10:18:08.519Z,12.70
2018-11-14T10:20:36.759Z,15.47
2018-11-14T10:23:05.243Z,11.17
2018-11-14T10:25:33.425Z,12.57
2018-11-14T10:28:02.102Z,13.03
2018-11-14T10:30:30.440Z,8.57
2018-11-14T10:32:58.774Z,12.63
2018-11-14T10:35:26.931Z,10.80
2018-11-14T10:37:55.094Z,9.87
2018-11-14T10:40:24.560Z,9.13
2018-11-14T10:42:52.806Z,12.47
2018-11-14T10:45:22.323Z,9.47
2018-11-14T10:47:51.104Z,8.80
2018-11-14T10:50:21.742Z,6.23
2018-11-14T10:52:49.954Z,6.90
2018-11-14T10:55:18.722Z,12.20
2018-11-14T10:57:46.895Z,8.77
2018-11-14T11:00:22.502Z,8.83
2018-11-14T11:02:56.231Z,10.57
2018-11-14T11:06:31.685Z,7.50
2018-11-14T11:09:15.580Z,8.67
2018-11-14T11:11:49.193Z,9.63
2018-11-14T11:14:22.679Z,9.50
2018-11-14T11:16:56.190Z,6.73
2018-11-14T11:19:26.654Z,9.67
2018-11-14T11:21:54.876Z,6.77
2018-11-14T11:24:23.418Z,7.90
2018-11-14T11:26:51.691Z,11.47
2018-11-14T11:29:19.906Z,9.73
2018-11-14T11:31:48.093Z,12.60
2018-11-14T11:34:16.275Z,8.23
2018-11-14T11:36:44.595Z,8.70
2018-11-14T11:39:15.011Z,7.63
2018-11-14T11:41:43.796Z,7.73
2018-11-14T11:44:12.025Z,7.93
2018-11-14T11:46:41.182Z,6.10
2018-11-14T11:49:09.755Z,6.33
2018-11-14T11:51:37.995Z,7.90
2018-11-14T11:54:06.746Z,9.50
2018-11-14T11:56:35.151Z,7.77
2018-11-14T11:59:03.469Z,6.87
2018-11-14T12:01:31.642Z,5.87
2018-11-14T12:03:59.887Z,7.23
2018-11-14T12:06:28.276Z,10.07
2018-11-14T12:08:56.460Z,7.33
2018-11-14T12:11:24.628Z,7.27
2018-11-14T12:13:52.947Z,7.77
2018-11-14T12:16:21.063Z,10.50
2018-11-14T12:18:49.968Z,7.60
2018-11-14T12:21:18.177Z,7.83
2018-11-14T12:23:46.447Z,5.70
2018-11-14T12:26:14.608Z,7.70
2018-11-14T12:28:42.785Z,7.50
2018-11-14T12:31:12.787Z,9.37
2018-11-14T12:33:40.732Z,10.03
2018-11-14T12:36:08.930Z,6.37
2018-11-14T12:38:37.149Z,7.67
2018-11-14T12:41:05.307Z,7.83
2018-11-14T12:43:33.614Z,8.93
2018-11-14T12:46:01.789Z,5.70
2018-11-14T12:48:30.099Z,6.40
2018-11-14T12:50:58.312Z,7.07
2018-11-14T12:53:26.548Z,5.50
2018-11-14T12:55:54.759Z,6.60
2018-11-14T12:58:22.910Z,7.17
2018-11-14T13:00:51.087Z,7.23
2018-11-14T13:03:19.273Z,6.60
2018-11-14T13:05:47.418Z,6.53
2018-11-14T13:08:15.644Z,6.33
2018-11-14T13:10:43.849Z,5.70
2018-11-14T13:13:12.140Z,4.53
2018-11-14T13:15:40.335Z,5.87
2018-11-14T13:18:08.557Z,6.53
2018-11-14T13:20:36.719Z,3.93
2018-11-14T13:23:04.891Z,4.50
2018-11-14T13:25:33.055Z,5.10
2018-11-14T13:28:01.245Z,4.60
2018-11-14T13:30:29.367Z,5.80
2018-11-14T13:32:57.579Z,6.37
2018-11-14T13:35:26.143Z,5.27
2018-11-14T13:37:54.355Z,8.17
2018-11-14T13:40:22.531Z,5.23
2018-11-14T13:42:50.819Z,5.90
2018-11-14T13:45:19.452Z,9.47
2018-11-14T13:47:47.627Z,9.63
2018-11-14T13:50:18.163Z,11.83
2018-11-14T13:52:46.185Z,6.43
2018-11-14T13:55:15.654Z,3.60
2018-11-14T13:57:45.143Z,7.33
2018-11-14T14:00:14.633Z,4.70
2018-11-14T14:02:43.512Z,6.97
2018-11-14T14:05:13.427Z,7.33
2018-11-14T14:07:41.652Z,9.00
2018-11-14T14:10:11.099Z,6.33
2018-11-14T14:12:39.790Z,8.40
2018-11-14T14:15:10.211Z,7.33
2018-11-14T14:17:38.487Z,6.33
2018-11-14T14:20:08.248Z,6.70
2018-11-14T14:22:36.414Z,4.40
2018-11-14T14:25:05.879Z,5.07
2018-11-14T14:27:34.059Z,4.40
2018-11-14T14:30:02.252Z,4.93
2018-11-14T14:32:30.419Z,6.00
2018-11-14T14:34:58.800Z,4.13
2018-11-14T14:37:26.947Z,2.80
2018-11-14T14:39:55.142Z,3.00
2018-11-14T14:42:23.372Z,5.00
2018-11-14T14:44:52.177Z,4.37
2018-11-14T14:47:20.414Z,5.50
2018-11-14T14:49:48.559Z,4.57
2018-11-14T14:52:16.705Z,3.83
2018-11-14T14:54:45.495Z,2.77
2018-11-14T14:57:13.665Z,3.83
2018-11-14T14:59:41.856Z,5.50
2018-11-14T15:02:10.026Z,5.00
2018-11-14T15:04:38.251Z,5.07
2018-11-14T15:07:06.574Z,3.83
2018-11-14T15:09:34.796Z,2.77
2018-11-14T15:12:02.923Z,4.27
2018-11-14T15:14:31.147Z,4.53
2018-11-14T15:16:59.326Z,4.03
2018-11-14T15:19:27.477Z,5.03
2018-11-14T15:21:55.682Z,6.40
2018-11-14T15:24:23.827Z,3.30
2018-11-14T15:26:51.981Z,3.57
2018-11-14T15:29:20.136Z,3.00
2018-11-14T15:31:48.323Z,5.07
2018-11-14T15:34:16.623Z,5.83
2018-11-14T15:36:45.496Z,3.43
2018-11-14T15:39:14.388Z,3.10
2018-11-14T15:41:42.613Z,3.97
2018-11-14T15:44:10.791Z,4.73
2018-11-14T15:46:39.094Z,6.90
2018-11-14T15:49:07.283Z,4.20
2018-11-14T15:51:35.509Z,6.43
2018-11-14T15:54:03.630Z,3.20
2018-11-14T15:56:31.831Z,6.27
2018-11-14T15:59:00.032Z,5.70
2018-11-14T16:01:28.206Z,5.00
2018-11-14T16:03:57.856Z,8.37
2018-11-14T16:06:26.052Z,7.50
2018-11-14T16:08:54.268Z,3.97
2018-11-14T16:11:22.519Z,4.97
2018-11-14T16:13:56.844Z,5.93
2018-11-14T16:16:25.887Z,8.93
2018-11-14T16:18:54.078Z,6.20
2018-11-14T16:21:22.464Z,4.53
2018-11-14T16:23:50.683Z,4.37
2018-11-14T16:26:19.953Z,4.83
2018-11-14T16:28:48.345Z,6.93
2018-11-14T16:31:16.573Z,8.03
2018-11-14T16:33:45.159Z,5.40
2018-11-14T16:36:13.755Z,6.23
2018-11-14T16:38:41.915Z,6.37
2018-11-14T16:41:10.492Z,6.53
2018-11-14T16:43:38.711Z,5.23
2018-11-14T16:46:06.911Z,3.77
2018-11-14T16:48:36.861Z,6.20
2018-11-14T16:51:05.208Z,4.10
2018-11-14T16:53:33.381Z,6.70
2018-11-14T16:56:01.651Z,4.30
2018-11-14T16:58:29.847Z,7.57
2018-11-14T17:00:58.128Z,4.63
2018-11-14T17:03:27.073Z,5.40
2018-11-14T17:05:55.199Z,6.43
2018-11-14T17:08:23.356Z,9.00
2018-11-14T17:10:51.634Z,5.97
2018-11-14T17:13:18.988Z,4.83
2018-11-14T17:15:48.460Z,5.67
2018-11-14T17:18:16.705Z,6.53
2018-11-14T17:20:44.899Z,6.57
2018-11-14T17:23:13.131Z,5.53
2018-11-14T17:25:41.401Z,4.97
2018-11-14T17:28:09.591Z,3.57
2018-11-14T17:30:37.759Z,3.67
2018-11-14T17:33:06.495Z,5.30
2018-11-14T17:35:34.675Z,4.20
2018-11-14T17:38:03.117Z,4.63
2018-11-14T17:40:31.919Z,5.57
2018-11-14T17:43:00.230Z,5.77
2018-11-14T17:45:30.386Z,4.43
2018-11-14T17:47:58.960Z,3.77
2018-11-14T17:50:30.795Z,5.97
2018-11-14T17:53:00.423Z,3.80
2018-11-14T17:55:35.419Z,4.07
2018-11-14T17:58:03.716Z,3.93
2018-11-14T18:00:32.414Z,5.00
2018-11-14T18:03:00.757Z,5.20
2018-11-14T18:05:30.094Z,6.53
2018-11-14T18:07:58.291Z,6.00
2018-11-14T18:10:27.787Z,4.77
2018-11-14T18:12:57.126Z,3.67
2018-11-14T18:15:25.264Z,5.77
2018-11-14T18:17:54.183Z,5.93
2018-11-14T18:20:24.559Z,3.93
2018-11-14T18:22:53.288Z,5.47
2018-11-14T18:25:21.569Z,4.67
2018-11-14T18:27:49.751Z,6.07
2018-11-14T18:30:19.997Z,6.57
2018-11-14T18:32:48.247Z,5.77
2018-11-14T18:35:17.323Z,4.70
2018-11-14T18:37:46.103Z,3.93
2018-11-14T18:40:15.594Z,4.97
2018-11-14T18:42:43.909Z,4.97
2018-11-14T18:45:17.079Z,7.20
2018-11-14T18:47:45.887Z,4.90
2018-11-14T18:50:14.902Z,5.73
2018-11-14T18:52:43.554Z,5.77
2018-11-14T18:55:12.855Z,7.27
2018-11-14T18:57:42.051Z,4.40
2018-11-14T19:00:12.991Z,7.07
2018-11-14T19:02:41.482Z,7.60
2018-11-14T19:05:10.846Z,8.70
2018-11-14T19:07:39.267Z,4.20
2018-11-14T19:10:10.474Z,6.53
2018-11-14T19:12:39.094Z,10.63
2018-11-14T19:15:09.373Z,8.60
2018-11-14T19:17:37.515Z,5.47
2018-11-14T19:20:06.807Z,6.47
2018-11-14T19:22:34.977Z,6.13
2018-11-14T19:25:03.145Z,6.30
2018-11-14T19:27:31.291Z,8.27
2018-11-14T19:29:59.560Z,5.60
2018-11-14T19:32:28.155Z,5.40
2018-11-14T19:34:56.695Z,7.27
2018-11-14T19:37:24.969Z,6.60
2018-11-14T19:39:53.338Z,9.00
2018-11-14T19:42:22.024Z,5.60
2018-11-14T19:44:50.430Z,6.57
2018-11-14T19:47:18.929Z,7.43
2018-11-14T19:49:47.112Z,7.67
2018-11-14T19:52:15.456Z,7.77
2018-11-14T19:54:43.610Z,8.43
2018-11-14T19:57:12.812Z,5.40
2018-11-14T19:59:40.978Z,6.87
2018-11-14T20:02:09.219Z,6.30
2018-11-14T20:04:37.353Z,8.93
2018-11-14T20:07:05.704Z,7.43
2018-11-14T20:09:33.820Z,7.10
2018-11-14T20:12:01.980Z,9.23
2018-11-14T20:14:30.158Z,6.37
2018-11-14T20:16:58.367Z,8.53
2018-11-14T20:19:26.636Z,8.40
2018-11-14T20:21:55.055Z,7.53
2018-11-14T20:24:31.245Z,6.70
2018-11-14T20:26:59.511Z,10.53
2018-11-14T20:29:27.654Z,6.57
2018-11-14T20:31:59.471Z,6.53
2018-11-14T20:34:27.655Z,7.53
2018-11-14T20:36:55.838Z,9.70
2018-11-14T20:39:24.002Z,7.33
2018-11-14T20:41:52.170Z,7.43
2018-11-14T20:44:20.345Z,8.80
2018-11-14T20:46:48.529Z,9.17
2018-11-14T20:49:16.835Z,7.90
2018-11-14T20:51:45.043Z,9.40
2018-11-14T20:54:13.278Z,10.30
2018-11-14T20:56:41.403Z,9.83
2018-11-14T20:59:10.772Z,11.93
2018-11-14T21:01:38.943Z,11.33
2018-11-14T21:04:07.166Z,11.37
2018-11-14T21:06:35.331Z,11.43
2018-11-14T21:09:04.691Z,11.23
2018-11-14T21:11:34.783Z,9.67
2018-11-14T21:14:03.236Z,12.63
2018-11-14T21:16:31.402Z,12.40
2018-11-14T21:18:59.550Z,16.20
2018-11-14T21:21:28.168Z,15.70
2018-11-14T21:23:56.458Z,16.30
2018-11-14T21:26:24.680Z,15.47
2018-11-14T21:28:52.833Z,18.43
2018-11-14T21:31:20.976Z,15.13
2018-11-14T21:33:49.151Z,14.17
2018-11-14T21:36:17.346Z,18.27
2018-11-14T21:38:45.542Z,13.97
2018-11-14T21:41:13.732Z,15.07
2018-11-14T21:43:42.029Z,14.27
2018-11-14T21:46:10.064Z,14.83
2018-11-14T21:48:38.299Z,12.93
2018-11-14T21:51:06.477Z,15.30
2018-11-14T21:53:34.632Z,18.23
2018-11-14T21:56:02.796Z,14.63
2018-11-14T21:58:30.971Z,15.67
2018-11-14T22:00:59.184Z,18.87
2018-11-14T22:03:27.334Z,17.27
2018-11-14T22:05:55.486Z,16.03
2018-11-14T22:08:23.696Z,17.93
2018-11-14T22:10:51.846Z,15.23
2018-11-14T22:13:20.029Z,15.80
2018-11-14T22:15:48.170Z,18.33
2018-11-14T22:18:16.339Z,19.07
2018-11-14T22:20:44.516Z,18.80
2018-11-14T22:23:12.718Z,23.60
2018-11-14T22:25:40.864Z,19.07
2018-11-14T22:28:09.083Z,17.63
2018-11-14T22:30:37.195Z,21.93
2018-11-14T22:33:05.420Z,17.33
2018-11-14T22:35:33.699Z,19.13
2018-11-14T22:38:01.871Z,18.73
2018-11-14T22:40:31.155Z,17.07
2018-11-14T22:42:59.665Z,16.93
2018-11-14T22:45:30.095Z,20.50
2018-11-14T22:47:58.301Z,18.50
2018-11-14T22:50:26.945Z,18.73
2018-11-14T22:52:55.143Z,19.77
2018-11-14T22:55:24.403Z,19.30
2018-11-14T22:57:53.180Z,20.23
2018-11-14T23:00:23.935Z,17.87
2018-11-14T23:02:54.341Z,19.07
2018-11-14T23:05:22.542Z,21.20
2018-11-14T23:07:51.725Z,22.27
2018-11-14T23:10:20.875Z,22.37
2018-11-14T23:12:49.407Z,19.93
2018-11-14T23:15:17.927Z,22.13
2018-11-14T23:17:46.111Z,19.27
2018-11-14T23:20:15.252Z,24.40
2018-11-14T23:22:44.141Z,20.63
2018-11-14T23:25:12.935Z,22.40
2018-11-14T23:27:42.834Z,23.60
2018-11-14T23:30:12.039Z,22.27
2018-11-14T23:32:41.447Z,19.83
2018-11-14T23:35:16.818Z,22.33
2018-11-14T23:37:49.048Z,21.07
2018-11-14T23:40:17.306Z,19.43
2018-11-14T23:42:45.535Z,20.10
2018-11-14T23:45:14.803Z,18.67
2018-11-14T23:47:43.837Z,23.17
2018-11-14T23:50:14.120Z,24.83
2018-11-14T23:52:43.411Z,23.73
2018-11-14T23:55:12.050Z,22.33
2018-11-14T23:57:40.583Z,23.13
